Choctaw, Mississippi
Current Conditions -  °F | °C
As of 11:56 AM on Thursday 27 Nov 2014 (Local Time) from KNMM Reporting Station
Scattered Clouds Scattered Clouds  
Wind Chill: 44°   Ceiling: Unl
Heat Index: 49°   Visibility: 10mi
Dew Point: 29°   Wind: 12mph
Humidity: 46%   Direction: 330°NNW
Pressure: 30.44"   Gusts: 20mph
Location:  32.751°N, 89.1208°W
Report Text: KNMM 271756Z AUTO 33010G17KT 10SM SCT037 09/M02 A3044 RMK AO2 SLP319 T00941017 10100 20011 58004
Loading
Personal Weather Stations






























Interactive Weather Map New forecast layout! Learn more

10-Day Weather Forecast

Advertisements
Track Severe Weather on mobile